Angle Inlet, Minnesota
Current Conditions -  °F | °C
As of 12:34 AM on Wednesday 26 Nov 2014 (Local Time) from KFGN Reporting Station
Overcast Overcast  
Wind Chill: -7°   Ceiling: 10000
Heat Index: 10°   Visibility: 10mi
Dew Point:   Wind: 16mph
Humidity: 79%   Direction: 350°N
Pressure: 30.13"   Gusts: NA
Location:  49.35°N, 95.08°W
Report Text: KFGN 260634Z AUTO 35014KT 10SM SCT046 OVC100 M12/M15 A3013 RMK AO2
Loading
Personal Weather Stations






























Interactive Weather Map New forecast layout! Learn more

10-Day Weather Forecast

Advertisements
Track Severe Weather on mobile